Hovedside
METAR-TAF:

METAR-TAF

Lufthavner :

Norrköping lufthavn

Norrköping, Sverige

breddegrad: 58-35N, lengdegrad: 016-09E, høyde over havet: 34 m

Gjeldene værobservasjon

Denne rapporten ble laget for 40 minutter siden, klokken 20:20 UTC
Vind 5 kt fra Øst
Temperatur 6°C
Luftfuktighet 75%
Trykk 1024 hPa
Sikt 10 km eller mer

METAR: ESSP 232020Z AUTO 09005KT 9999 NCD 06/02 Q1024

Tid: 23:00 (21:00 UTC)

Varsel

Denne rapporten ble laget for 3 timer og 30 minutter siden, klokken 17:30 UTC
Varsel gyldig fra 23. klokken 18 UTC til 23. klokken 21 UTC
Vind 8 kt fra Øst-sørøst
Sikt 10 km eller mer
ingen skyer under 1500 m og ingen bygeskyer

TAF: ESSP 231730Z 2318/2321 12008KT CAVOK

Værobservasjoner og værvarsel for over 4000 flyplasser (METAR- og TAF-rapporter).

Tilgjengelige stasjoner er representert av de røde og gule prikkene på kartet.

Hold musepekeren over prikken for å se navnet på stasjonen.

Klikk så for å se værobservasjoner og -varsler.

For å forandre kartet kan du klikke på den grønne knappen med svart kryss for å zoome inn, på den grønne knappen med strek for å zoome ut, eller på de grønne pilene for å se tilstøtende kart.


METAR-TAF: